Christiana, Tennessee
Current Conditions -  °F | °C
As of 2:53 PM on Tuesday 25 Nov 2014 (Local Time) from KBNA Reporting Station
Broken Clouds Broken Clouds  
Wind Chill: 50°   Ceiling: 18000
Heat Index: 50°   Visibility: 10mi
Dew Point: 26°   Wind: 7mph
Humidity: 39%   Direction: NA
Pressure: 30.12"   Gusts: NA
Location:  35.71°N, 86.4°W
Report Text: KBNA 252053Z VRB06KT 10SM BKN180 BKN250 10/M03 A3012 RMK AO2 SLP200 T01001033 56011
Loading
Personal Weather Stations






























Interactive Weather Map New forecast layout! Learn more

10-Day Weather Forecast

Advertisements
Track Severe Weather on mobile